Time;durP1;ratioP1;P1;durP2;ratioP2;P2;SDS_P1;SDS_P2;PMS_P1;PMS_P2;Temp;Humidity;BMP_temperature;BMP_pressure;BME280_temperature;BME280_humidity;BME280_pressure;Samples;Min_cycle;Max_cycle;Signal;HPM_P1;HPM_P2
2023/08/05 00:02:22;;;;;;;0.73;0.73;;;21.20;69.50;;;;;;5027892;28;20124;-76
2023/08/05 00:04:48;;;;;;;0.68;0.68;;;21.30;70.30;;;;;;5024761;28;20060;-75
2023/08/05 00:07:13;;;;;;;0.80;0.80;;;21.30;69.40;;;;;;5024758;28;20049;-76
2023/08/05 00:09:39;;;;;;;2.00;0.80;;;21.30;69.50;;;;;;5024694;28;20045;-76
2023/08/05 00:12:05;;;;;;;0.80;0.80;;;21.30;70.20;;;;;;5023638;28;20065;-76
2023/08/05 00:14:33;;;;;;;0.70;0.70;;;21.30;69.50;;;;;;5027251;28;20037;-76
2023/08/05 00:16:58;;;;;;;0.73;0.73;;;21.30;69.40;;;;;;5023914;28;20119;-76
2023/08/05 00:19:24;;;;;;;0.70;0.70;;;21.30;69.30;;;;;;5025807;28;20526;-76
2023/08/05 00:21:50;;;;;;;1.00;0.90;;;21.30;69.40;;;;;;5024769;28;20052;-75
2023/08/05 00:24:15;;;;;;;0.68;0.68;;;21.30;69.20;;;;;;5025003;28;20460;-76
2023/08/05 00:26:41;;;;;;;0.82;0.82;;;21.30;69.20;;;;;;5022602;28;20042;-76
2023/08/05 00:29:06;;;;;;;0.70;0.70;;;21.30;69.20;;;;;;5026517;28;20041;-76
2023/08/05 00:31:32;;;;;;;0.85;0.85;;;21.30;69.30;;;;;;5021938;28;20055;-76
2023/08/05 00:33:58;;;;;;;0.80;0.80;;;21.20;69.20;;;;;;5024365;28;20061;-76
2023/08/05 00:36:24;;;;;;;0.80;0.80;;;21.30;69.10;;;;;;5024926;28;20526;-76
2023/08/05 00:38:49;;;;;;;0.88;0.88;;;21.20;69.00;;;;;;5023683;28;20041;-76
2023/08/05 00:41:15;;;;;;;1.13;0.85;;;21.30;69.20;;;;;;5025274;28;20164;-76
2023/08/05 00:43:40;;;;;;;1.75;1.27;;;21.20;69.10;;;;;;5024630;28;20049;-76
2023/08/05 00:46:08;;;;;;;0.65;0.65;;;21.20;69.00;;;;;;5022207;28;20049;-76
2023/08/05 00:48:33;;;;;;;1.00;0.90;;;21.30;69.10;;;;;;5026009;28;20056;-75
2023/08/05 00:50:59;;;;;;;0.80;0.80;;;21.30;69.20;;;;;;5024816;28;20053;-76
2023/08/05 00:53:25;;;;;;;0.75;0.75;;;21.30;69.90;;;;;;5024194;28;20507;-76
2023/08/05 00:55:53;;;;;;;1.48;0.88;;;21.30;69.10;;;;;;5023226;28;20107;-76
2023/08/05 00:58:22;;;;;;;0.68;0.63;;;21.20;69.80;;;;;;5025384;28;20457;-76
2023/08/05 01:00:48;;;;;;;0.90;0.90;;;21.30;69.00;;;;;;5020969;28;20045;-76
2023/08/05 01:03:14;;;;;;;0.95;0.90;;;21.20;69.10;;;;;;5026411;28;20046;-76
2023/08/05 01:05:39;;;;;;;1.15;0.90;;;21.20;69.10;;;;;;5026620;28;20546;-76
2023/08/05 01:08:05;;;;;;;5.20;1.38;;;21.20;69.00;;;;;;5024510;28;20050;-76
2023/08/05 01:10:30;;;;;;;1.08;0.98;;;21.20;68.90;;;;;;5024101;28;20099;-76
2023/08/05 01:12:56;;;;;;;0.98;0.98;;;21.30;69.10;;;;;;5024421;28;20049;-76
2023/08/05 01:15:21;;;;;;;1.40;1.30;;;21.20;69.00;;;;;;5023830;28;20534;-75
2023/08/05 01:17:47;;;;;;;0.77;0.77;;;21.20;69.20;;;;;;5024809;28;20037;-76
2023/08/05 01:20:13;;;;;;;1.20;1.10;;;21.30;69.00;;;;;;5022997;28;20115;-76
2023/08/05 01:22:46;;;;;;;0.80;0.70;;;21.30;69.00;;;;;;5024062;28;20459;-76
2023/08/05 01:25:37;;;;;;;1.02;1.02;;;21.30;68.80;;;;;;5022585;28;20055;-76
2023/08/05 01:28:03;;;;;;;0.80;0.70;;;21.20;68.80;;;;;;5017609;28;20076;-76
2023/08/05 01:30:29;;;;;;;2.97;0.90;;;21.20;68.90;;;;;;5023594;28;20158;-76
2023/08/05 01:32:55;;;;;;;1.00;0.95;;;21.20;69.00;;;;;;5023760;28;20510;-75
2023/08/05 01:35:21;;;;;;;0.90;0.90;;;21.30;69.10;;;;;;5023650;28;20103;-76
2023/08/05 01:37:47;;;;;;;1.00;1.00;;;21.20;68.90;;;;;;5022632;28;20045;-75
2023/08/05 01:40:13;;;;;;;0.77;0.77;;;21.20;69.80;;;;;;5021045;28;20155;-76
2023/08/05 01:42:38;;;;;;;1.13;1.13;;;21.20;69.10;;;;;;5022399;28;20577;-76
2023/08/05 01:45:04;;;;;;;0.98;0.90;;;21.20;69.10;;;;;;5023655;28;20052;-76
2023/08/05 01:47:30;;;;;;;1.05;0.95;;;21.20;69.00;;;;;;5024397;28;20539;-75
2023/08/05 01:49:56;;;;;;;0.98;0.93;;;21.20;69.20;;;;;;5022278;28;20041;-75
2023/08/05 01:52:21;;;;;;;0.85;0.80;;;21.20;69.00;;;;;;5022671;28;20099;-75
2023/08/05 01:54:47;;;;;;;0.90;0.90;;;21.20;69.00;;;;;;5021096;28;20052;-76
2023/08/05 01:57:12;;;;;;;0.68;0.68;;;21.20;69.00;;;;;;5023442;28;20038;-75
2023/08/05 01:59:38;;;;;;;1.10;1.00;;;21.30;69.00;;;;;;5024643;28;20045;-76
2023/08/05 02:02:04;;;;;;;1.10;1.00;;;21.30;69.00;;;;;;5022191;28;20510;-75
2023/08/05 02:04:29;;;;;;;0.80;0.80;;;21.20;68.90;;;;;;5020847;28;20126;-76
2023/08/05 02:06:55;;;;;;;1.40;1.30;;;21.20;69.00;;;;;;5021488;28;20171;-76
2023/08/05 02:09:20;;;;;;;0.82;0.82;;;21.20;69.10;;;;;;5021817;28;20124;-76
2023/08/05 02:11:46;;;;;;;0.80;0.80;;;21.20;69.00;;;;;;5024690;28;20051;-76
2023/08/05 02:14:11;;;;;;;1.35;0.95;;;21.20;68.90;;;;;;5024272;28;20095;-76
2023/08/05 02:16:37;;;;;;;1.25;1.00;;;21.20;69.10;;;;;;5023334;28;20555;-76
2023/08/05 02:19:03;;;;;;;1.45;1.17;;;21.30;69.00;;;;;;5019234;28;20049;-76
2023/08/05 02:21:28;;;;;;;1.00;0.98;;;21.30;69.30;;;;;;5021862;28;20048;-76
2023/08/05 02:23:54;;;;;;;0.85;0.85;;;21.30;69.30;;;;;;5023564;28;20068;-76
2023/08/05 02:26:20;;;;;;;0.95;0.95;;;21.30;69.30;;;;;;5008462;28;20496;-76
2023/08/05 02:28:46;;;;;;;1.00;1.00;;;21.30;69.40;;;;;;5023061;28;20045;-76
2023/08/05 02:31:12;;;;;;;1.38;1.25;;;21.30;69.50;;;;;;5023216;28;20048;-76
2023/08/05 02:33:38;;;;;;;0.80;0.80;;;21.30;69.60;;;;;;5023233;28;20053;-76
2023/08/05 02:36:03;;;;;;;1.13;0.82;;;21.30;69.80;;;;;;5021970;28;20813;-76
2023/08/05 02:38:29;;;;;;;0.90;0.90;;;21.30;69.90;;;;;;5025191;28;20045;-76
2023/08/05 02:40:55;;;;;;;1.60;1.30;;;21.30;70.00;;;;;;5020438;28;20168;-75
2023/08/05 02:43:21;;;;;;;1.25;1.23;;;21.30;70.10;;;;;;5023508;28;20045;-76
2023/08/05 02:45:54;;;;;;;1.02;1.02;;;21.30;70.10;;;;;;5022119;28;20051;-76
2023/08/05 02:48:21;;;;;;;1.02;1.00;;;21.30;70.10;;;;;;5024178;28;20056;-76
2023/08/05 02:50:47;;;;;;;0.93;0.93;;;21.30;70.10;;;;;;5026409;28;20574;-76
2023/08/05 02:53:12;;;;;;;1.20;1.10;;;21.30;70.20;;;;;;5027229;28;20137;-76
2023/08/05 02:55:38;;;;;;;0.80;0.80;;;21.20;70.10;;;;;;5025107;28;20542;-76
2023/08/05 02:58:03;;;;;;;0.80;0.80;;;21.20;70.20;;;;;;5024319;28;20045;-76
2023/08/05 03:00:29;;;;;;;1.33;1.13;;;21.30;71.10;;;;;;5024895;28;20049;-76
2023/08/05 03:02:54;;;;;;;0.90;0.90;;;21.20;70.20;;;;;;5028063;28;20069;-75
2023/08/05 03:05:20;;;;;;;0.98;0.98;;;21.20;70.20;;;;;;5027512;28;20119;-76
2023/08/05 03:07:45;;;;;;;0.90;0.90;;;21.30;70.30;;;;;;5026654;28;20048;-76
2023/08/05 03:10:11;;;;;;;1.00;0.90;;;21.30;70.30;;;;;;5026558;28;20041;-76
2023/08/05 03:12:36;;;;;;;1.50;0.90;;;21.30;70.20;;;;;;5027114;28;20096;-76
2023/08/05 03:15:02;;;;;;;1.23;1.13;;;21.20;70.30;;;;;;5023664;28;20053;-76
2023/08/05 03:17:28;;;;;;;1.00;1.00;;;21.20;70.30;;;;;;5010497;28;20049;-76
2023/08/05 03:19:53;;;;;;;1.15;1.05;;;21.20;70.20;;;;;;5025525;28;20124;-76
2023/08/05 03:22:19;;;;;;;1.50;1.40;;;21.20;70.30;;;;;;5026833;28;20467;-76
2023/08/05 03:24:44;;;;;;;0.82;0.82;;;21.20;70.20;;;;;;5023411;28;20541;-76
2023/08/05 03:27:10;;;;;;;0.85;0.85;;;21.20;70.20;;;;;;5026561;28;20048;-76
2023/08/05 03:29:36;;;;;;;2.00;1.20;;;21.20;70.10;;;;;;5027262;28;20124;-76
2023/08/05 03:32:01;;;;;;;1.10;1.10;;;21.20;70.10;;;;;;5022307;28;20502;-76
2023/08/05 03:34:27;;;;;;;0.90;0.90;;;21.20;70.10;;;;;;5023211;28;20069;-76
2023/08/05 03:36:52;;;;;;;0.90;0.90;;;21.20;70.10;;;;;;5026854;28;20116;-76
2023/08/05 03:39:19;;;;;;;1.20;1.10;;;21.20;70.10;;;;;;5023397;28;20496;-76
2023/08/05 03:41:45;;;;;;;1.00;0.90;;;21.20;70.10;;;;;;5026551;28;20081;-76
2023/08/05 03:44:11;;;;;;;1.10;1.10;;;21.20;70.00;;;;;;5024819;28;20124;-76
2023/08/05 03:46:37;;;;;;;0.80;0.80;;;21.20;70.10;;;;;;5025670;28;20148;-76
2023/08/05 03:49:03;;;;;;;1.30;1.20;;;21.20;70.10;;;;;;5023416;28;20558;-76
2023/08/05 03:51:29;;;;;;;0.80;0.80;;;21.20;70.10;;;;;;5027485;28;20115;-76
2023/08/05 03:53:56;;;;;;;1.23;1.13;;;21.20;70.10;;;;;;5026801;28;20029;-76
2023/08/05 03:56:24;;;;;;;1.20;1.02;;;21.20;70.00;;;;;;5025056;28;20116;-76
2023/08/05 03:58:51;;;;;;;0.80;0.80;;;21.20;70.10;;;;;;5025544;28;20026;-76
2023/08/05 04:01:17;;;;;;;0.82;0.82;;;21.20;70.00;;;;;;5023973;28;20046;-76
2023/08/05 04:03:44;;;;;;;1.02;1.02;;;21.20;70.00;;;;;;5024230;28;20103;-76
2023/08/05 04:06:11;;;;;;;1.25;1.15;;;21.20;70.00;;;;;;5024321;28;20037;-76
2023/08/05 04:08:38;;;;;;;1.25;1.10;;;21.20;70.00;;;;;;5025108;28;20408;-76
2023/08/05 04:11:05;;;;;;;1.33;1.23;;;21.20;69.90;;;;;;5024775;28;20091;-76
2023/08/05 04:13:32;;;;;;;1.08;0.98;;;21.20;70.00;;;;;;5022872;28;20120;-76
2023/08/05 04:15:59;;;;;;;1.30;1.20;;;21.20;70.00;;;;;;5024483;28;20037;-76
2023/08/05 04:18:25;;;;;;;0.65;0.65;;;21.10;69.90;;;;;;5022762;28;20141;-76
2023/08/05 04:20:51;;;;;;;1.00;1.00;;;21.20;69.90;;;;;;5023768;28;20117;-76
2023/08/05 04:23:21;;;;;;;0.95;0.95;;;21.20;70.00;;;;;;5026472;28;20033;-76
2023/08/05 04:25:47;;;;;;;1.17;1.10;;;21.20;70.00;;;;;;5025761;28;20049;-76
2023/08/05 04:28:13;;;;;;;1.13;1.02;;;21.20;70.00;;;;;;5024384;28;20045;-76
2023/08/05 04:30:40;;;;;;;1.10;1.10;;;21.10;69.80;;;;;;5024387;28;20049;-76
2023/08/05 04:33:06;;;;;;;1.10;1.02;;;21.20;69.90;;;;;;5023197;28;20059;-76
2023/08/05 04:35:32;;;;;;;1.08;0.98;;;21.10;69.90;;;;;;5025799;28;20083;-76
2023/08/05 04:37:57;;;;;;;1.25;1.15;;;21.10;69.90;;;;;;5025292;28;20037;-76
2023/08/05 04:40:23;;;;;;;0.90;0.90;;;21.10;69.80;;;;;;5022485;28;20125;-76
2023/08/05 04:42:48;;;;;;;1.17;1.10;;;21.10;69.80;;;;;;5008551;28;20510;-76
2023/08/05 04:45:14;;;;;;;1.20;1.10;;;21.10;69.90;;;;;;5023455;28;20046;-76
2023/08/05 04:47:41;;;;;;;1.13;1.10;;;21.10;69.70;;;;;;5026381;28;20041;-76
2023/08/05 04:50:06;;;;;;;0.75;0.75;;;21.10;69.80;;;;;;5023028;28;20033;-76
2023/08/05 04:52:32;;;;;;;0.90;0.90;;;21.10;69.90;;;;;;5024880;28;20195;-76
2023/08/05 04:54:58;;;;;;;1.27;1.17;;;21.10;69.80;;;;;;5023525;28;20042;-76
2023/08/05 04:57:24;;;;;;;1.10;1.10;;;21.10;69.70;;;;;;5039963;28;20037;-76
2023/08/05 04:59:49;;;;;;;0.85;0.85;;;21.10;69.80;;;;;;5025516;28;20368;-76
2023/08/05 05:02:15;;;;;;;1.38;1.30;;;21.10;69.70;;;;;;5022644;28;20064;-76
2023/08/05 05:04:41;;;;;;;0.82;0.82;;;21.10;69.80;;;;;;5026055;28;20055;-76
2023/08/05 05:07:06;;;;;;;0.85;0.85;;;21.10;69.70;;;;;;5022272;28;20245;-76
2023/08/05 05:09:32;;;;;;;1.00;1.00;;;21.10;69.70;;;;;;5025723;28;20608;-76
2023/08/05 05:12:00;;;;;;;1.13;1.08;;;21.10;69.70;;;;;;5024467;28;20693;-76
2023/08/05 05:14:25;;;;;;;1.20;0.90;;;21.10;69.80;;;;;;5026417;28;20057;-76
2023/08/05 05:16:51;;;;;;;1.10;1.10;;;21.10;69.70;;;;;;5024051;28;20037;-76
2023/08/05 05:19:16;;;;;;;0.90;0.90;;;21.10;69.70;;;;;;5023256;28;20101;-76
2023/08/05 05:21:42;;;;;;;1.33;1.13;;;21.10;69.60;;;;;;5022632;28;20456;-76
2023/08/05 05:24:07;;;;;;;0.82;0.82;;;21.10;69.70;;;;;;5023629;28;20041;-76
2023/08/05 05:26:33;;;;;;;1.15;1.05;;;21.10;69.60;;;;;;5025926;28;20499;-76
2023/08/05 05:28:58;;;;;;;1.42;1.33;;;21.10;69.60;;;;;;5024377;28;20407;-76
2023/08/05 05:31:24;;;;;;;1.25;1.05;;;21.10;69.60;;;;;;5022202;28;20021;-76
2023/08/05 05:33:51;;;;;;;1.20;1.10;;;21.10;69.60;;;;;;5020319;28;20038;-76
2023/08/05 05:36:16;;;;;;;0.90;0.90;;;21.10;69.60;;;;;;5023102;28;20125;-76
2023/08/05 05:38:42;;;;;;;1.00;1.00;;;21.10;69.60;;;;;;5015211;28;20132;-75
2023/08/05 05:41:08;;;;;;;1.13;1.13;;;21.10;69.70;;;;;;5025431;28;20037;-75
2023/08/05 05:43:35;;;;;;;0.70;0.70;;;21.10;69.60;;;;;;5024213;28;20499;-75
2023/08/05 05:46:00;;;;;;;1.02;1.00;;;21.10;69.60;;;;;;5023036;28;20415;-75
2023/08/05 05:48:27;;;;;;;1.25;1.05;;;21.10;69.60;;;;;;5022692;28;20049;-75
2023/08/05 05:50:52;;;;;;;1.23;1.15;;;21.10;69.60;;;;;;5024208;28;20495;-75
2023/08/05 05:53:18;;;;;;;1.17;1.13;;;21.00;69.50;;;;;;5022577;28;20099;-75
2023/08/05 05:55:46;;;;;;;1.25;1.17;;;21.10;69.60;;;;;;5024378;28;20407;-75
2023/08/05 05:58:13;;;;;;;0.88;0.88;;;21.10;69.60;;;;;;5023117;28;20037;-75
2023/08/05 06:00:39;;;;;;;1.10;1.10;;;21.10;69.60;;;;;;5017794;28;20030;-75
2023/08/05 06:03:05;;;;;;;1.52;1.10;;;21.10;69.50;;;;;;5010758;28;20083;-75
2023/08/05 06:05:31;;;;;;;1.08;1.05;;;21.10;69.50;;;;;;5015409;28;20084;-75
2023/08/05 06:07:57;;;;;;;0.95;0.95;;;21.10;69.50;;;;;;5022181;28;20095;-75
2023/08/05 06:10:22;;;;;;;1.17;1.00;;;21.10;69.50;;;;;;5024555;28;20438;-75
2023/08/05 06:12:48;;;;;;;1.08;1.00;;;21.10;69.50;;;;;;5021743;28;20053;-75
2023/08/05 06:15:13;;;;;;;1.10;1.00;;;21.10;69.40;;;;;;5024663;28;20050;-75
2023/08/05 06:17:39;;;;;;;1.30;1.20;;;21.10;70.20;;;;;;5024219;28;20263;-75
2023/08/05 06:20:06;;;;;;;0.90;0.90;;;21.10;69.40;;;;;;5022453;28;20521;-75
2023/08/05 06:22:32;;;;;;;0.80;0.80;;;21.00;69.30;;;;;;5026191;28;20033;-75
2023/08/05 06:24:57;;;;;;;1.10;1.00;;;21.10;70.20;;;;;;5010619;28;20046;-75
2023/08/05 06:27:23;;;;;;;1.10;1.00;;;21.00;69.30;;;;;;5027215;28;20029;-75
2023/08/05 06:29:48;;;;;;;0.95;0.95;;;21.10;69.40;;;;;;5028539;28;20441;-75
2023/08/05 06:32:14;;;;;;;1.13;1.13;;;21.10;69.40;;;;;;5028947;28;20022;-75
2023/08/05 06:34:39;;;;;;;0.90;0.90;;;21.00;69.20;;;;;;5027789;28;20114;-75
2023/08/05 06:37:05;;;;;;;1.10;1.00;;;21.10;69.40;;;;;;5025237;28;20511;-75
2023/08/05 06:39:33;;;;;;;0.77;0.75;;;21.10;69.30;;;;;;5026868;28;20065;-75
2023/08/05 06:41:59;;;;;;;0.80;0.80;;;21.10;69.30;;;;;;5028277;28;20045;-75
2023/08/05 06:44:25;;;;;;;1.00;1.00;;;21.00;69.20;;;;;;5027423;28;20049;-75
2023/08/05 06:46:51;;;;;;;1.10;1.00;;;21.00;69.20;;;;;;5027287;28;20036;-75
2023/08/05 06:49:16;;;;;;;1.08;0.98;;;21.10;69.30;;;;;;5025554;28;20037;-75
2023/08/05 06:51:42;;;;;;;2.13;1.10;;;21.10;69.20;;;;;;5025446;28;20072;-75
2023/08/05 06:54:10;;;;;;;1.20;1.20;;;21.00;69.30;;;;;;5026839;28;20609;-75
2023/08/05 06:56:36;;;;;;;1.33;1.10;;;21.10;69.30;;;;;;5025207;28;20065;-75
2023/08/05 06:59:02;;;;;;;1.30;1.20;;;21.10;69.20;;;;;;5027249;28;20053;-75
2023/08/05 07:01:27;;;;;;;1.25;1.15;;;21.00;69.90;;;;;;5026864;28;20495;-75
2023/08/05 07:03:53;;;;;;;0.93;0.93;;;21.10;69.30;;;;;;5027036;28;20045;-75
2023/08/05 07:06:18;;;;;;;1.17;1.17;;;21.00;69.20;;;;;;5026023;28;20045;-75
2023/08/05 07:08:44;;;;;;;1.00;1.00;;;21.00;69.20;;;;;;5026719;28;20241;-75
2023/08/05 07:11:09;;;;;;;1.10;1.10;;;21.00;69.20;;;;;;5027326;28;20037;-75
2023/08/05 07:13:35;;;;;;;1.10;1.10;;;21.00;69.20;;;;;;5023805;28;20539;-75
2023/08/05 07:16:01;;;;;;;0.95;0.95;;;21.10;69.30;;;;;;5024997;28;20171;-75
2023/08/05 07:18:27;;;;;;;1.25;1.10;;;21.10;69.20;;;;;;5021758;28;20412;-75
2023/08/05 07:20:53;;;;;;;1.05;1.05;;;21.00;69.10;;;;;;5024430;28;20496;-75
2023/08/05 07:23:18;;;;;;;1.92;1.13;;;21.10;69.20;;;;;;5025005;28;20089;-75
2023/08/05 07:25:44;;;;;;;1.15;1.15;;;21.10;69.20;;;;;;5022275;28;20531;-75
2023/08/05 07:28:09;;;;;;;1.00;1.00;;;21.10;69.20;;;;;;5026191;28;20053;-75
2023/08/05 07:30:35;;;;;;;0.82;0.82;;;21.00;69.10;;;;;;5019684;28;20057;-75
2023/08/05 07:33:04;;;;;;;0.82;0.82;;;21.00;69.10;;;;;;5019721;28;20037;-74
2023/08/05 07:35:30;;;;;;;1.20;1.10;;;21.10;69.10;;;;;;5025559;28;20044;-75
2023/08/05 07:37:55;;;;;;;0.90;0.90;;;21.10;69.20;;;;;;5024620;28;20038;-75
2023/08/05 07:40:22;;;;;;;1.02;1.02;;;21.10;69.30;;;;;;5023467;28;20052;-75
2023/08/05 07:42:49;;;;;;;1.40;1.30;;;21.10;69.20;;;;;;5025236;28;20040;-75
2023/08/05 07:45:17;;;;;;;0.90;0.90;;;21.10;69.20;;;;;;5023097;28;20185;-75
2023/08/05 07:47:44;;;;;;;1.25;1.15;;;21.10;69.20;;;;;;5024706;28;20492;-75
2023/08/05 07:50:10;;;;;;;1.30;1.20;;;21.00;69.20;;;;;;5024214;28;20132;-75
2023/08/05 07:52:39;;;;;;;1.58;1.48;;;21.00;69.20;;;;;;5024235;28;20076;-75
2023/08/05 07:55:04;;;;;;;1.05;1.00;;;21.00;69.20;;;;;;5022627;28;20487;-75
2023/08/05 07:57:30;;;;;;;1.50;1.40;;;21.00;69.20;;;;;;5022728;28;20515;-75
2023/08/05 07:59:56;;;;;;;1.10;1.10;;;21.00;69.10;;;;;;5026630;28;20415;-75
2023/08/05 08:02:22;;;;;;;1.23;1.17;;;21.00;69.20;;;;;;5023720;28;20125;-75
2023/08/05 08:04:49;;;;;;;1.55;1.35;;;21.00;69.30;;;;;;5025957;28;20042;-75
2023/08/05 08:07:14;;;;;;;1.20;1.10;;;21.00;69.30;;;;;;5021174;28;20466;-75
2023/08/05 08:09:40;;;;;;;0.95;0.95;;;21.00;69.20;;;;;;5023200;28;20061;-75
2023/08/05 08:12:06;;;;;;;1.02;1.02;;;21.00;69.20;;;;;;5024134;28;20064;-75
2023/08/05 08:14:32;;;;;;;1.05;1.05;;;21.10;69.20;;;;;;4986859;28;1098870;-75
2023/08/05 08:16:59;;;;;;;1.20;1.10;;;21.00;69.20;;;;;;5024575;28;20068;-74
2023/08/05 08:19:24;;;;;;;0.98;0.98;;;21.00;69.00;;;;;;5023286;28;20068;-75
2023/08/05 08:21:50;;;;;;;1.15;1.05;;;21.00;69.10;;;;;;5025860;28;20069;-75
2023/08/05 08:24:15;;;;;;;0.95;0.95;;;21.00;69.10;;;;;;5022930;28;20545;-75
2023/08/05 08:26:41;;;;;;;0.93;0.93;;;21.00;69.10;;;;;;5026736;28;20045;-75
2023/08/05 08:29:06;;;;;;;1.10;1.10;;;21.00;69.10;;;;;;5021580;28;20461;-75
2023/08/05 08:31:33;;;;;;;1.00;1.00;;;21.00;69.20;;;;;;5020021;28;20054;-75
2023/08/05 08:33:59;;;;;;;1.20;1.20;;;21.00;69.10;;;;;;5020193;28;20402;-75
2023/08/05 08:36:25;;;;;;;0.80;0.80;;;21.00;70.00;;;;;;5024133;28;20046;-75
2023/08/05 08:38:50;;;;;;;0.73;0.73;;;21.10;69.20;;;;;;5023888;28;20069;-75
2023/08/05 08:41:16;;;;;;;1.15;1.05;;;21.10;69.20;;;;;;5025885;28;20042;-75
2023/08/05 08:43:42;;;;;;;0.90;0.90;;;21.00;69.10;;;;;;5024292;28;20045;-75
2023/08/05 08:46:08;;;;;;;1.00;1.00;;;21.00;69.10;;;;;;5024275;28;20044;-75
2023/08/05 08:48:37;;;;;;;0.80;0.80;;;21.00;69.30;;;;;;5022974;28;20056;-75
2023/08/05 08:51:03;;;;;;;1.00;1.00;;;21.10;69.30;;;;;;5024597;28;20437;-75
2023/08/05 08:53:29;;;;;;;1.00;1.00;;;21.10;69.30;;;;;;5025432;28;20045;-75
2023/08/05 08:55:54;;;;;;;1.17;1.10;;;21.00;69.30;;;;;;5025154;28;20068;-75
2023/08/05 08:58:20;;;;;;;1.30;1.20;;;21.10;69.30;;;;;;5023719;28;20050;-75
2023/08/05 09:00:46;;;;;;;0.90;0.90;;;21.10;69.20;;;;;;5025326;28;20124;-75
2023/08/05 09:03:11;;;;;;;1.15;1.08;;;21.10;69.20;;;;;;5024670;28;20037;-75
2023/08/05 09:05:50;;;;;;;1.05;1.05;;;21.10;69.30;;;;;;5025705;28;20408;-75
2023/08/05 09:08:15;;;;;;;1.10;1.00;;;21.10;69.30;;;;;;5056663;28;20045;-75
2023/08/05 09:10:43;;;;;;;1.00;0.95;;;21.10;69.30;;;;;;5023726;28;20095;-75
2023/08/05 09:13:08;;;;;;;0.90;0.90;;;21.10;69.20;;;;;;5024213;28;20041;-75
2023/08/05 09:15:36;;;;;;;1.52;1.42;;;21.10;69.30;;;;;;5022609;28;20056;-75
2023/08/05 09:18:03;;;;;;;1.60;1.50;;;21.10;69.20;;;;;;5023948;28;20061;-75
2023/08/05 09:20:31;;;;;;;1.13;1.10;;;21.10;69.30;;;;;;5022754;28;20042;-75
2023/08/05 09:22:57;;;;;;;1.40;1.30;;;21.10;69.20;;;;;;5022998;28;20388;-75
2023/08/05 09:25:23;;;;;;;1.00;1.00;;;21.10;69.30;;;;;;5021684;28;20053;-75
2023/08/05 09:27:52;;;;;;;1.20;1.10;;;21.10;69.40;;;;;;5023209;28;20115;-75
2023/08/05 09:30:17;;;;;;;1.15;1.02;;;21.20;69.60;;;;;;5022275;28;20099;-75
2023/08/05 09:32:45;;;;;;;0.88;0.88;;;21.10;69.60;;;;;;5026519;28;20054;-75
2023/08/05 09:35:11;;;;;;;1.15;1.05;;;21.20;69.40;;;;;;5025155;28;20037;-75
2023/08/05 09:37:44;;;;;;;0.85;0.85;;;21.10;69.30;;;;;;5021032;28;20045;-75
2023/08/05 09:40:28;;;;;;;1.10;0.90;;;21.20;69.50;;;;;;5020404;28;20120;-74
2023/08/05 09:42:57;;;;;;;1.00;1.00;;;21.10;69.40;;;;;;5020959;28;20111;-75
2023/08/05 09:45:25;;;;;;;1.17;1.17;;;21.10;69.40;;;;;;5021335;28;20053;-75
2023/08/05 09:47:52;;;;;;;1.10;1.00;;;21.10;69.50;;;;;;5024341;28;20072;-75
2023/08/05 09:50:18;;;;;;;1.00;1.00;;;21.20;69.60;;;;;;5022272;28;20044;-75
2023/08/05 09:52:44;;;;;;;1.00;0.90;;;21.20;69.40;;;;;;5023045;28;20045;-75
2023/08/05 09:55:14;;;;;;;0.93;0.93;;;21.20;69.40;;;;;;5022978;28;20045;-75
2023/08/05 09:57:40;;;;;;;0.90;0.90;;;21.20;69.50;;;;;;5022877;28;20049;-75
2023/08/05 10:00:08;;;;;;;0.70;0.70;;;21.20;69.40;;;;;;5025443;28;20042;-75
2023/08/05 10:02:34;;;;;;;0.70;0.70;;;21.20;69.80;;;;;;5022665;28;20519;-75
2023/08/05 10:05:00;;;;;;;0.68;0.68;;;21.20;70.30;;;;;;5022905;28;20140;-75
2023/08/05 10:07:27;;;;;;;0.55;0.55;;;21.20;69.60;;;;;;5023476;28;20121;-75
2023/08/05 10:09:52;;;;;;;0.60;0.60;;;21.20;69.60;;;;;;5023186;28;20046;-75
2023/08/05 10:12:22;;;;;;;0.60;0.60;;;21.20;69.70;;;;;;5007935;28;20042;-75
2023/08/05 10:14:48;;;;;;;0.90;0.90;;;21.20;69.80;;;;;;5021580;28;20511;-75
2023/08/05 10:17:15;;;;;;;0.70;0.70;;;21.20;70.00;;;;;;5011853;28;20124;-75
2023/08/05 10:19:40;;;;;;;0.70;0.70;;;21.20;70.00;;;;;;5004643;28;20108;-75
2023/08/05 10:22:09;;;;;;;0.70;0.70;;;21.20;70.10;;;;;;5022939;28;20042;-75
2023/08/05 10:24:54;;;;;;;0.63;0.63;;;21.20;70.80;;;;;;5022382;28;20049;-75
2023/08/05 10:27:37;;;;;;;0.40;0.40;;;21.20;70.30;;;;;;5021764;28;20400;-75
2023/08/05 10:30:21;;;;;;;0.52;0.52;;;21.20;70.40;;;;;;5017566;28;20050;-75
2023/08/05 10:32:53;;;;;;;0.43;0.43;;;21.20;70.30;;;;;;5023519;28;20050;-75
2023/08/05 10:35:28;;;;;;;0.70;0.70;;;21.20;70.40;;;;;;5024936;28;20033;-75
2023/08/05 10:38:16;;;;;;;0.47;0.47;;;21.20;70.30;;;;;;5002350;28;20049;-75
2023/08/05 10:41:01;;;;;;;0.50;0.50;;;21.20;70.60;;;;;;5022892;28;20069;-75
2023/08/05 10:43:32;;;;;;;0.50;0.50;;;21.20;70.60;;;;;;5018782;28;20030;-75
2023/08/05 10:45:58;;;;;;;0.50;0.50;;;21.20;70.30;;;;;;5018930;28;20132;-75
2023/08/05 10:48:48;;;;;;;0.60;0.60;;;21.20;70.60;;;;;;5021333;28;20144;-75
2023/08/05 10:51:18;;;;;;;0.80;0.50;;;21.20;70.60;;;;;;5022354;28;20046;-75
2023/08/05 10:53:51;;;;;;;0.40;0.40;;;21.20;71.00;;;;;;5019230;28;20045;-75
2023/08/05 10:56:16;;;;;;;0.50;0.50;;;21.20;71.20;;;;;;5023336;28;20037;-75
2023/08/05 10:58:52;;;;;;;0.40;0.35;;;21.20;71.10;;;;;;5021103;28;20045;-75
2023/08/05 11:01:18;;;;;;;0.50;0.50;;;21.20;71.00;;;;;;5022414;28;20045;-75
2023/08/05 11:03:52;;;;;;;0.38;0.35;;;21.20;71.00;;;;;;5020540;28;20099;-75
2023/08/05 11:06:24;;;;;;;0.30;0.30;;;21.20;71.20;;;;;;5020457;28;20438;-75
2023/08/05 11:08:50;;;;;;;0.40;0.40;;;21.30;70.90;;;;;;5026037;28;20507;-75
2023/08/05 11:11:15;;;;;;;0.40;0.40;;;21.30;70.90;;;;;;5027369;28;20112;-75
2023/08/05 11:13:41;;;;;;;0.40;0.40;;;21.30;71.20;;;;;;5024407;28;20065;-75
2023/08/05 11:16:11;;;;;;;0.40;0.35;;;21.30;70.90;;;;;;5028285;28;20081;-75
2023/08/05 11:18:39;;;;;;;0.40;0.40;;;21.30;70.90;;;;;;5025279;28;20381;-75
2023/08/05 11:21:06;;;;;;;0.40;0.40;;;21.30;70.90;;;;;;5024811;28;20446;-75
2023/08/05 11:23:32;;;;;;;0.40;0.40;;;21.30;70.70;;;;;;5010989;28;20114;-75
2023/08/05 11:26:01;;;;;;;0.30;0.30;;;21.30;70.90;;;;;;5024037;28;20068;-75
2023/08/05 11:28:27;;;;;;;0.40;0.40;;;21.30;71.20;;;;;;5024535;28;20387;-75
2023/08/05 11:30:53;;;;;;;0.55;0.55;;;21.30;71.70;;;;;;5025849;28;20046;-75
2023/08/05 11:33:19;;;;;;;0.45;0.45;;;21.30;71.10;;;;;;5026883;28;20128;-75
2023/08/05 11:35:46;;;;;;;0.30;0.30;;;21.40;71.30;;;;;;5026052;28;20203;-75
2023/08/05 11:38:24;;;;;;;0.50;0.50;;;21.30;71.30;;;;;;5024049;28;20057;-75
2023/08/05 11:40:54;;;;;;;0.38;0.38;;;21.40;71.50;;;;;;5023620;28;20128;-75
2023/08/05 11:43:20;;;;;;;0.43;0.43;;;21.40;71.30;;;;;;5026468;28;20054;-75
2023/08/05 11:45:49;;;;;;;0.60;0.60;;;21.40;71.30;;;;;;5024737;28;20132;-75
2023/08/05 11:48:25;;;;;;;0.30;0.30;;;21.40;71.50;;;;;;5026444;28;20056;-75
2023/08/05 11:51:01;;;;;;;0.40;0.40;;;21.40;71.70;;;;;;5025391;28;20499;-75
2023/08/05 11:53:27;;;;;;;0.40;0.40;;;21.30;71.70;;;;;;5026268;28;20076;-75
2023/08/05 11:55:52;;;;;;;0.40;0.40;;;21.40;71.70;;;;;;5026548;28;20468;-75
2023/08/05 11:58:19;;;;;;;0.60;0.60;;;21.40;71.80;;;;;;5025305;28;20045;-75
2023/08/05 12:00:49;;;;;;;0.30;0.30;;;21.40;71.90;;;;;;5024981;28;20495;-75
2023/08/05 12:03:15;;;;;;;0.35;0.35;;;21.40;71.80;;;;;;5025529;28;20044;-75
2023/08/05 12:05:42;;;;;;;0.40;0.40;;;21.40;71.70;;;;;;5026309;28;20041;-75
2023/08/05 12:08:07;;;;;;;0.40;0.40;;;21.40;72.40;;;;;;5024214;28;20045;-75
2023/08/05 12:10:33;;;;;;;0.43;0.43;;;21.40;71.50;;;;;;5024902;28;20529;-75
2023/08/05 12:13:01;;;;;;;0.50;0.50;;;21.40;71.50;;;;;;5024657;28;20534;-75
2023/08/05 12:15:27;;;;;;;0.40;0.40;;;21.40;71.50;;;;;;5023358;28;20045;-75
2023/08/05 12:17:54;;;;;;;0.38;0.38;;;21.40;71.50;;;;;;5026521;28;20076;-75
2023/08/05 12:20:24;;;;;;;0.38;0.38;;;21.40;71.40;;;;;;5026587;28;20034;-75
2023/08/05 12:22:52;;;;;;;0.40;0.40;;;21.40;71.40;;;;;;5021895;28;20049;-75
2023/08/05 12:25:18;;;;;;;0.40;0.40;;;21.40;71.30;;;;;;5022039;28;20415;-75
2023/08/05 12:27:43;;;;;;;0.40;0.40;;;21.40;71.20;;;;;;5008818;28;20041;-75
2023/08/05 12:30:09;;;;;;;0.68;0.47;;;21.40;71.10;;;;;;5024920;28;20041;-75
2023/08/05 12:32:35;;;;;;;0.50;0.50;;;21.40;71.10;;;;;;5025428;28;20052;-75
2023/08/05 12:35:05;;;;;;;0.35;0.35;;;21.40;71.00;;;;;;5023429;28;20049;-75
2023/08/05 12:37:33;;;;;;;0.47;0.47;;;21.40;71.00;;;;;;5023988;28;20053;-75
2023/08/05 12:39:59;;;;;;;0.45;0.45;;;21.40;70.90;;;;;;5008938;28;20033;-75
2023/08/05 12:42:24;;;;;;;0.50;0.50;;;21.40;70.80;;;;;;5025409;28;20049;-75
2023/08/05 12:44:50;;;;;;;0.60;0.57;;;21.40;70.70;;;;;;5023848;28;20396;-75
2023/08/05 12:47:15;;;;;;;1.15;0.40;;;21.50;70.80;;;;;;5024109;28;20046;-75